• Join FlightAware (Why Join?)
  • Login
  • US Flag 
01:05AM EST


 

Airport Tracker/Info


-or-


 

Live Flight TrackerFlight Track Log ✈ N3801T ✈ 28-Sep-2013 ✈ KDLH - KPNM

Flight Track Log - Related Links

Times and Time Zones

All times are in EDT time to prevent confusion due to time zone crossing. See the N3801T flight status page for this flight to view local times or setup timezone preferences in your user account.

Time Position Orientation Groundspeed Altitude Reporting Facility
EDT Latitude Longitude Course Direction KTS MPH feet Rate Location/Type
06:13PM 46.7975 -92.2883 223° Southwest 75 86 4,400  Level Minneapolis Center
06:14PM 46.7811 -92.3047 214° Southwest 74 85 5,000 300 Climbing Minneapolis Center
06:15PM 46.7628 -92.3275 220° Southwest 76 87 5,100  Climbing Minneapolis Center
06:16PM 46.7403 -92.3625 227° Southwest 92 106 5,000 -60 Descending Minneapolis Center
06:17PM 46.7095 -92.3770 224° Southwest  Level FlightAware Approximate
06:17PM 46.7136 -92.4025 226° Southwest 106 122 5,000  Level Minneapolis Center
06:18PM 46.6874 -92.4074 223° Southwest  Level FlightAware Approximate
06:18PM 46.6919 -92.4308 222° Southwest 108 124 5,000  Level Minneapolis Center
06:19PM 46.6706 -92.4589 222° Southwest 106 122 5,000 -60 Level Minneapolis Center
06:20PM 46.6497 -92.4889 225° Southwest 105 121 4,900 -60 Descending Minneapolis Center
06:21PM 46.6275 -92.5169 221° Southwest 106 122 4,900  Level Minneapolis Center
06:22PM 46.6078 -92.5472 227° Southwest 105 121 5,000  Climbing Minneapolis Center
06:23PM 46.5878 -92.5789 227° Southwest 105 121 5,000 180 Level Minneapolis Center
06:24PM 46.5686 -92.6089 227° Southwest 104 120 5,400 480 Climbing Minneapolis Center
06:25PM 46.5514 -92.6339 225° Southwest 92 106 6,100 660 Climbing Minneapolis Center
06:26PM 46.5408 -92.6533 232° Southwest 78 90 6,800 480 Climbing Minneapolis Center
06:27PM 46.5286 -92.6719 226° Southwest 70 81 7,100 60 Climbing Minneapolis Center
06:28PM 46.5094 -92.6969 222° Southwest 76 87 7,000 -60 Descending Minneapolis Center
06:29PM 46.4856 -92.7278 222° Southwest 93 107 7,000  Level Minneapolis Center
06:30PM 46.4650 -92.7544 222° Southwest 100 115 7,000  Level Minneapolis Center
06:31PM 46.4367 -92.7744 206° Southwest 106 122 7,100  Climbing Minneapolis Center
06:32PM 46.4058 -92.8003 210° Southwest 107 123 7,000 -60 Descending Minneapolis Center
06:33PM 46.3839 -92.8275 221° Southwest 105 121 7,000  Level Minneapolis Center
06:34PM 46.3600 -92.8558 219° Southwest 107 123 7,000  Level Minneapolis Center
06:35PM 46.3358 -92.8828 218° Southwest 108 124 7,000  Level Minneapolis Center
06:36PM 46.3119 -92.9089 217° Southwest 109 125 7,000  Level Minneapolis Center
06:37PM 46.2886 -92.9358 219° Southwest 108 124 7,000  Level Minneapolis Center
06:38PM 46.2625 -92.9656 218° Southwest 112 129 7,000  Level Minneapolis Center
06:39PM 46.2311 -92.9997 217° Southwest 116 133 7,000  Level Minneapolis Center
06:40PM 46.2036 -93.0211 208° Southwest 115 132 7,000  Level Minneapolis Center
06:41PM 46.1778 -93.0456 213° Southwest 112 129 7,000  Level Minneapolis Center
06:42PM 46.1531 -93.0728 217° Southwest 112 129 7,000 -240 Level Minneapolis Center
06:44PM 46.1236 -93.0964 209° Southwest 116 133 6,600 -360 Descending Minneapolis Center
06:45PM 46.0933 -93.1208 209° Southwest 121 139 6,300 -300 Descending Minneapolis Center
06:46PM 46.0572 -93.1550 213° Southwest 125 144 6,000 -360 Descending Minneapolis Center
06:47PM 46.0247 -93.1850 213° Southwest 131 151 5,600 -480 Descending Minneapolis Center
06:48PM 45.9933 -93.2142 213° Southwest 134 154 5,100 -360 Descending Minneapolis Center
06:49PM 45.9622 -93.2417 212° Southwest 133 153 4,900 -300 Descending Minneapolis Center
06:50PM 45.9308 -93.2669 209° Southwest 132 152 4,500 -420 Descending Minneapolis Center
06:51PM 45.9019 -93.2992 218° Southwest 131 151 4,100 -300 Descending Minneapolis Center
06:52PM 45.8731 -93.3281 215° Southwest 129 148 4,000 -60 Descending Minneapolis Center
06:53PM 45.8392 -93.3628 216° Southwest 126 145 4,000  Level Minneapolis Center
06:54PM 45.8111 -93.3883 212° Southwest 121 139 4,000  Level Minneapolis Center
06:55PM 45.7819 -93.4119 209° Southwest 122 140 4,000 -120 Level Minneapolis Center
06:56PM 45.7539 -93.4403 215° Southwest 122 140 3,800 -120 Descending Minneapolis Center
06:57PM 45.7253 -93.4683 214° Southwest 125 144 3,800 -240 Level Minneapolis Center
06:58PM 45.6953 -93.4961 213° Southwest 126 145 3,400 -420 Descending Minneapolis Center